Time;durP1;ratioP1;P1;durP2;ratioP2;P2;SDS_P1;SDS_P2;PMS_P1;PMS_P2;Temp;Humidity;BMP_temperature;BMP_pressure;BME280_temperature;BME280_humidity;BME280_pressure;Samples;Min_cycle;Max_cycle;Signal;HPM_P1;HPM_P2
2022/11/13 00:01:29;;;;;;;25.67;19.20;;;5.70;1.00;;;;;;4894223;29;20204;-66
2022/11/13 00:04:15;;;;;;;28.13;20.83;;;5.70;1.00;;;;;;4886175;29;20364;-66
2022/11/13 00:07:00;;;;;;;28.37;19.97;;;5.70;1.00;;;;;;4903221;29;20691;-66
2022/11/13 00:09:46;;;;;;;33.43;24.63;;;5.60;1.00;;;;;;4901042;29;20545;-66
2022/11/13 00:12:32;;;;;;;31.37;22.57;;;5.60;1.00;;;;;;4901516;29;20247;-66
2022/11/13 00:15:17;;;;;;;32.33;24.00;;;5.60;1.00;;;;;;4896122;29;20204;-66
2022/11/13 00:18:03;;;;;;;37.67;24.90;;;5.60;1.00;;;;;;4897992;29;20219;-66
2022/11/13 00:20:49;;;;;;;31.67;21.10;;;5.60;1.00;;;;;;4884488;29;20685;-65
2022/11/13 00:23:35;;;;;;;34.93;22.30;;;5.70;99.90;;;;;;4898380;29;20292;-65
2022/11/13 00:26:24;;;;;;;25.10;19.07;;;5.70;1.00;;;;;;4902411;29;20231;-65
2022/11/13 00:29:10;;;;;;;23.50;19.43;;;5.70;99.90;;;;;;4899846;29;20205;-67
2022/11/13 00:31:55;;;;;;;25.07;20.37;;;5.50;99.90;;;;;;4901487;29;20220;-66
2022/11/13 00:34:41;;;;;;;29.00;21.70;;;5.40;99.90;;;;;;4900780;29;20228;-66
2022/11/13 00:37:33;;;;;;;32.40;22.87;;;5.40;56.20;;;;;;4901174;29;20207;-66
2022/11/13 00:40:19;;;;;;;25.93;19.90;;;5.30;4.50;;;;;;4884566;29;20690;-67
2022/11/13 00:43:04;;;;;;;30.63;22.17;;;5.40;1.00;;;;;;4885229;29;20248;-66
2022/11/13 00:45:50;;;;;;;27.47;21.33;;;5.30;1.00;;;;;;4899994;29;20615;-66
2022/11/13 00:48:36;;;;;;;34.60;23.50;;;5.30;1.00;;;;;;4901909;29;20255;-67
2022/11/13 00:51:22;;;;;;;30.33;22.60;;;5.30;1.00;;;;;;4892616;29;20212;-66
2022/11/13 00:54:08;;;;;;;27.77;20.80;;;5.40;1.00;;;;;;4898382;29;20200;-66
2022/11/13 00:56:53;;;;;;;34.53;24.70;;;5.40;1.00;;;;;;4899524;29;20215;-65
2022/11/13 00:59:39;;;;;;;30.50;22.70;;;5.40;1.00;;;;;;4899103;29;20206;-68
2022/11/13 01:02:24;;;;;;;28.93;19.47;;;5.40;1.00;;;;;;4897367;29;20207;-67
2022/11/13 01:05:10;;;;;;;26.20;19.03;;;5.30;1.00;;;;;;4897059;29;20239;-68
2022/11/13 01:07:56;;;;;;;29.63;20.67;;;5.30;1.00;;;;;;4882956;29;20627;-67
2022/11/13 01:10:45;;;;;;;24.37;18.80;;;5.20;1.00;;;;;;4877783;29;20224;-67
2022/11/13 01:13:39;;;;;;;25.57;18.37;;;5.10;1.00;;;;;;4887875;29;20235;-68
2022/11/13 01:16:26;;;;;;;30.90;21.60;;;5.10;1.00;;;;;;4899884;29;20199;-67
2022/11/13 01:19:12;;;;;;;24.97;19.97;;;5.00;1.00;;;;;;4884961;29;20380;-67
2022/11/13 01:21:58;;;;;;;23.70;16.73;;;5.10;99.90;;;;;;4893369;29;20249;-66
2022/11/13 01:24:44;;;;;;;22.70;17.27;;;5.10;99.90;;;;;;4900313;29;20204;-66
2022/11/13 01:27:29;;;;;;;19.37;16.13;;;5.20;99.90;;;;;;4885705;29;20270;-66
2022/11/13 01:30:15;;;;;;;26.47;17.30;;;5.20;2.30;;;;;;4882854;29;20252;-67
2022/11/13 01:33:01;;;;;;;26.07;17.83;;;5.10;1.00;;;;;;4884046;29;20211;-65
2022/11/13 01:35:46;;;;;;;28.33;17.73;;;5.10;1.00;;;;;;4898236;29;20219;-66
2022/11/13 01:38:33;;;;;;;24.70;17.13;;;5.10;1.00;;;;;;4900714;29;20220;-66
2022/11/13 01:41:30;;;;;;;25.03;17.70;;;5.10;1.00;;;;;;4898884;29;20308;-66
2022/11/13 01:44:18;;;;;;;24.63;17.20;;;5.10;1.00;;;;;;4897135;29;20285;-66
2022/11/13 01:47:04;;;;;;;21.80;16.23;;;5.10;1.00;;;;;;4899176;29;20300;-64
2022/11/13 01:49:53;;;;;;;28.97;19.47;;;5.00;1.00;;;;;;4901689;29;20207;-69
2022/11/13 01:52:41;;;;;;;29.17;18.77;;;5.00;1.00;;;;;;4888007;29;20284;-69
2022/11/13 01:55:27;;;;;;;24.17;16.80;;;5.10;1.00;;;;;;4899292;29;20195;-69
2022/11/13 01:58:13;;;;;;;25.77;19.03;;;5.00;1.00;;;;;;4902477;29;20211;-68
2022/11/13 02:00:59;;;;;;;30.63;21.20;;;5.10;1.00;;;;;;4888740;29;20199;-69
2022/11/13 02:03:44;;;;;;;25.63;19.73;;;5.10;1.00;;;;;;4886740;29;20247;-69
2022/11/13 02:06:40;;;;;;;27.53;19.37;;;5.00;99.90;;;;;;4899176;29;20216;-68
2022/11/13 02:09:30;;;;;;;24.93;18.03;;;5.00;99.90;;;;;;4901291;29;20692;-67
2022/11/13 02:12:35;;;;;;;22.77;16.73;;;5.00;1.00;;;;;;4886749;29;20590;-69
2022/11/13 02:15:24;;;;;;;24.27;16.53;;;4.90;1.00;;;;;;4901765;29;20208;-68
2022/11/13 02:18:10;;;;;;;23.10;16.07;;;4.80;1.00;;;;;;4899940;29;20291;-69
2022/11/13 02:21:19;;;;;;;23.23;16.10;;;4.80;1.00;;;;;;4887052;29;20235;-69
2022/11/13 02:24:13;;;;;;;27.80;17.27;;;4.80;1.00;;;;;;4896458;29;20288;-66
2022/11/13 02:27:05;;;;;;;21.20;16.43;;;4.70;1.00;;;;;;4891441;29;20215;-67
2022/11/13 02:29:50;;;;;;;23.43;15.93;;;4.60;1.00;;;;;;4896166;29;20216;-66
2022/11/13 02:32:45;;;;;;;22.70;16.70;;;4.60;1.00;;;;;;4894011;29;20219;-66
2022/11/13 02:35:33;;;;;;;20.53;15.83;;;4.60;1.00;;;;;;4895199;29;20211;-66
2022/11/13 02:38:19;;;;;;;27.93;16.77;;;4.50;1.00;;;;;;4884042;29;20210;-66
2022/11/13 02:41:04;;;;;;;22.60;16.73;;;4.60;1.00;;;;;;4902180;29;20218;-66
2022/11/13 02:43:50;;;;;;;20.93;16.23;;;4.50;1.00;;;;;;4900797;29;20203;-66
2022/11/13 02:46:35;;;;;;;20.90;15.73;;;4.50;1.00;;;;;;4903091;29;20708;-66
2022/11/13 02:49:21;;;;;;;22.57;16.27;;;4.40;1.00;;;;;;4889094;29;20560;-67
2022/11/13 02:52:07;;;;;;;21.07;15.47;;;4.40;1.00;;;;;;4903324;29;20683;-67
2022/11/13 02:54:52;;;;;;;21.37;16.00;;;4.30;1.00;;;;;;4903981;29;20211;-67
2022/11/13 02:57:38;;;;;;;19.43;15.57;;;4.30;1.00;;;;;;4904857;29;20282;-67
2022/11/13 03:00:24;;;;;;;26.27;15.87;;;4.30;1.00;;;;;;4890348;29;20319;-67
2022/11/13 03:03:09;;;;;;;23.13;16.43;;;4.30;1.00;;;;;;4902632;29;20320;-65
2022/11/13 03:05:55;;;;;;;20.03;15.07;;;4.30;1.00;;;;;;4902768;29;20203;-66
2022/11/13 03:08:40;;;;;;;21.37;14.97;;;4.20;1.00;;;;;;4903459;29;20237;-67
2022/11/13 03:11:26;;;;;;;23.37;16.07;;;4.20;1.00;;;;;;4902361;29;20221;-67
2022/11/13 03:14:11;;;;;;;19.43;15.43;;;4.20;1.00;;;;;;4903585;29;20216;-67
2022/11/13 03:16:57;;;;;;;25.57;15.83;;;4.10;1.00;;;;;;4902734;29;20214;-66
2022/11/13 03:19:43;;;;;;;22.10;16.10;;;4.10;1.00;;;;;;4901463;29;20207;-66
2022/11/13 03:22:28;;;;;;;19.30;15.60;;;4.10;1.00;;;;;;4903975;29;20204;-66
2022/11/13 03:25:14;;;;;;;23.17;15.00;;;4.10;1.00;;;;;;4903064;29;20199;-66
2022/11/13 03:28:00;;;;;;;19.30;15.23;;;4.00;1.00;;;;;;4903692;29;20339;-67
2022/11/13 03:30:46;;;;;;;18.57;13.27;;;4.00;1.00;;;;;;4902156;29;20208;-68
2022/11/13 03:33:32;;;;;;;17.23;14.07;;;4.00;1.00;;;;;;4900386;29;20336;-68
2022/11/13 03:36:18;;;;;;;20.97;13.50;;;4.00;1.00;;;;;;4887032;29;20199;-67
2022/11/13 03:39:04;;;;;;;16.77;13.97;;;3.90;1.00;;;;;;4904036;29;20291;-68
2022/11/13 03:41:49;;;;;;;16.43;13.13;;;3.90;1.00;;;;;;4896809;29;20281;-67
2022/11/13 03:44:35;;;;;;;18.07;13.27;;;3.80;1.00;;;;;;4903604;29;22565;-67
2022/11/13 03:47:20;;;;;;;17.63;13.13;;;3.80;1.00;;;;;;4902564;29;20679;-67
2022/11/13 03:50:06;;;;;;;17.00;13.33;;;3.80;1.00;;;;;;4898870;29;20294;-66
2022/11/13 03:52:52;;;;;;;17.70;12.63;;;3.80;1.00;;;;;;4903766;29;20204;-66
2022/11/13 03:55:38;;;;;;;15.90;12.53;;;3.80;1.00;;;;;;4903469;29;20255;-67
2022/11/13 03:58:23;;;;;;;18.97;13.60;;;3.80;1.00;;;;;;4888949;29;20216;-67
2022/11/13 04:01:09;;;;;;;17.67;13.07;;;3.70;1.00;;;;;;4899873;29;20232;-67
2022/11/13 04:03:54;;;;;;;18.27;14.17;;;3.70;1.00;;;;;;4901926;29;20254;-67
2022/11/13 04:06:40;;;;;;;19.13;15.53;;;3.70;1.00;;;;;;4902899;29;20207;-67
2022/11/13 04:09:25;;;;;;;17.23;12.70;;;3.70;1.00;;;;;;4899867;29;20232;-68
2022/11/13 04:12:12;;;;;;;16.07;12.73;;;3.70;1.00;;;;;;4902162;29;20246;-67
2022/11/13 04:14:58;;;;;;;17.63;12.90;;;3.60;1.00;;;;;;4900882;29;20208;-64
2022/11/13 04:17:43;;;;;;;17.77;12.83;;;3.70;1.00;;;;;;4904609;29;20316;-64
2022/11/13 04:20:29;;;;;;;15.17;12.27;;;3.60;1.00;;;;;;4888661;29;20211;-66
2022/11/13 04:23:16;;;;;;;19.93;12.93;;;3.60;1.00;;;;;;4899261;29;20212;-66
2022/11/13 04:26:02;;;;;;;16.03;11.90;;;3.50;1.00;;;;;;4902190;29;20297;-68
2022/11/13 04:28:47;;;;;;;17.37;11.97;;;3.50;1.00;;;;;;4901862;29;20364;-66
2022/11/13 04:31:33;;;;;;;13.40;11.13;;;3.50;1.00;;;;;;4903130;29;20204;-67
2022/11/13 04:34:18;;;;;;;14.47;12.13;;;3.50;1.00;;;;;;4900237;29;20719;-67
2022/11/13 04:37:04;;;;;;;13.37;11.83;;;3.50;1.00;;;;;;4898280;29;20280;-67
2022/11/13 04:39:49;;;;;;;16.67;12.70;;;3.40;39.50;;;;;;4903112;29;20320;-67
2022/11/13 04:42:50;;;;;;;14.73;11.47;;;3.30;99.90;;;;;;4888471;29;20821;-67
2022/11/13 04:45:36;;;;;;;12.77;10.80;;;3.30;99.90;;;;;;4902291;29;20674;-67
2022/11/13 04:48:21;;;;;;;15.13;11.50;;;3.20;99.90;;;;;;4902898;29;20227;-67
2022/11/13 04:51:07;;;;;;;17.77;12.60;;;3.20;99.90;;;;;;4886272;29;20213;-68
2022/11/13 04:53:53;;;;;;;14.73;11.90;;;3.20;99.90;;;;;;4886989;29;20262;-65
2022/11/13 04:56:38;;;;;;;13.73;11.10;;;3.20;99.90;;;;;;4898608;29;20204;-65
2022/11/13 04:59:24;;;;;;;13.97;11.57;;;3.20;99.90;;;;;;4898668;29;20205;-66
2022/11/13 05:02:09;;;;;;;13.60;11.40;;;3.20;99.90;;;;;;4886353;29;20232;-65
2022/11/13 05:04:55;;;;;;;16.03;12.60;;;3.20;99.90;;;;;;4896500;29;20243;-65
2022/11/13 05:07:48;;;;;;;13.67;11.33;;;3.20;99.90;;;;;;4899829;29;20273;-67
2022/11/13 05:10:34;;;;;;;14.97;11.97;;;3.20;99.90;;;;;;4901206;29;20199;-65
2022/11/13 05:13:20;;;;;;;15.07;11.63;;;3.20;99.90;;;;;;4898040;29;20295;-68
2022/11/13 05:16:09;;;;;;;13.47;11.13;;;3.30;1.00;;;;;;4902285;29;20198;-68
2022/11/13 05:18:57;;;;;;;12.83;10.83;;;3.20;1.00;;;;;;4901667;29;20217;-68
2022/11/13 05:21:45;;;;;;;13.77;11.20;;;3.20;1.00;;;;;;4903311;29;20208;-67
2022/11/13 05:24:30;;;;;;;12.93;10.60;;;3.10;1.00;;;;;;4902626;29;20336;-66
2022/11/13 05:27:16;;;;;;;13.97;11.23;;;3.10;1.00;;;;;;4888201;29;20798;-66
2022/11/13 05:30:03;;;;;;;12.33;9.87;;;3.00;1.00;;;;;;4887005;29;20207;-67
2022/11/13 05:32:48;;;;;;;13.60;11.00;;;3.00;1.00;;;;;;4899468;29;20692;-66
2022/11/13 05:35:34;;;;;;;15.10;10.87;;;2.90;1.00;;;;;;4900285;29;20199;-66
2022/11/13 05:38:20;;;;;;;14.80;10.80;;;2.90;1.00;;;;;;4901070;29;20226;-66
2022/11/13 05:41:12;;;;;;;11.63;9.83;;;2.90;1.00;;;;;;4887563;29;20215;-66
2022/11/13 05:43:58;;;;;;;16.87;10.63;;;2.90;1.00;;;;;;4902574;29;20222;-66
2022/11/13 05:46:44;;;;;;;15.47;9.97;;;2.80;1.00;;;;;;4901296;29;20678;-66
2022/11/13 05:49:30;;;;;;;11.13;9.93;;;2.90;1.00;;;;;;4901427;29;20224;-65
2022/11/13 05:52:15;;;;;;;12.17;9.90;;;3.00;1.00;;;;;;4900183;29;20215;-65
2022/11/13 05:55:01;;;;;;;13.83;10.20;;;3.00;1.00;;;;;;4900717;29;20278;-65
2022/11/13 05:57:46;;;;;;;14.80;11.77;;;2.90;1.00;;;;;;4901487;29;20216;-65
2022/11/13 06:00:32;;;;;;;12.20;10.53;;;2.90;1.00;;;;;;4895609;29;20202;-65
2022/11/13 06:03:18;;;;;;;13.50;10.87;;;2.90;1.00;;;;;;4887985;29;20567;-65
2022/11/13 06:06:05;;;;;;;17.03;12.67;;;2.90;1.00;;;;;;4902101;29;20208;-65
2022/11/13 06:08:52;;;;;;;15.20;11.90;;;2.90;1.00;;;;;;4898484;29;20702;-65
2022/11/13 06:11:38;;;;;;;13.63;11.43;;;2.90;1.00;;;;;;4884429;29;20679;-65
2022/11/13 06:14:23;;;;;;;15.63;12.43;;;2.80;1.00;;;;;;4899876;29;20200;-65
2022/11/13 06:17:09;;;;;;;16.03;12.53;;;2.90;1.00;;;;;;4900005;29;20264;-65
2022/11/13 06:19:54;;;;;;;18.80;12.00;;;2.80;1.00;;;;;;4899245;29;20716;-65
2022/11/13 06:22:40;;;;;;;14.20;11.60;;;2.90;1.00;;;;;;4897680;29;20204;-65
2022/11/13 06:25:26;;;;;;;16.00;12.13;;;2.90;1.00;;;;;;4887796;29;20212;-66
2022/11/13 06:28:12;;;;;;;14.70;12.30;;;2.80;1.00;;;;;;4900154;29;20223;-65
2022/11/13 06:31:06;;;;;;;16.97;13.50;;;2.80;1.00;;;;;;4900571;29;20869;-67
2022/11/13 06:33:52;;;;;;;17.17;11.70;;;2.80;1.00;;;;;;4901340;29;20220;-66
2022/11/13 06:36:37;;;;;;;18.13;14.07;;;2.90;1.00;;;;;;4899398;29;20398;-66
2022/11/13 06:39:23;;;;;;;16.70;12.37;;;2.90;1.00;;;;;;4896948;29;20211;-66
2022/11/13 06:42:08;;;;;;;16.73;13.57;;;2.90;1.00;;;;;;4902117;29;20208;-65
2022/11/13 06:44:53;;;;;;;18.47;13.87;;;2.80;1.00;;;;;;4901035;29;20714;-66
2022/11/13 06:47:39;;;;;;;21.10;15.37;;;2.80;1.00;;;;;;4899378;29;20195;-65
2022/11/13 06:50:25;;;;;;;18.47;14.13;;;2.90;1.00;;;;;;4898172;29;20212;-65
2022/11/13 06:53:10;;;;;;;22.77;14.93;;;2.90;1.00;;;;;;4900687;29;20207;-66
2022/11/13 06:55:57;;;;;;;20.30;15.17;;;2.90;1.00;;;;;;4904978;29;20211;-70
2022/11/13 06:58:43;;;;;;;17.07;14.63;;;3.00;1.00;;;;;;4899706;29;20215;-68
2022/11/13 07:01:28;;;;;;;27.53;20.27;;;3.00;99.90;;;;;;4897892;29;20303;-68
2022/11/13 07:04:14;;;;;;;21.87;16.30;;;3.00;99.90;;;;;;4899257;29;20239;-64
2022/11/13 07:07:00;;;;;;;20.03;14.80;;;3.00;99.90;;;;;;4890944;29;20634;-66
2022/11/13 07:09:46;;;;;;;17.53;13.47;;;3.00;99.90;;;;;;4900469;29;20278;-66
2022/11/13 07:12:31;;;;;;;54.03;33.33;;;3.10;99.90;;;;;;4898239;29;20240;-65
2022/11/13 07:15:17;;;;;;;32.83;22.07;;;3.10;99.90;;;;;;4899171;29;20208;-65
2022/11/13 07:18:04;;;;;;;17.73;13.93;;;3.20;99.90;;;;;;4900295;29;20191;-67
2022/11/13 07:20:49;;;;;;;15.30;11.87;;;3.20;99.90;;;;;;4885229;29;20324;-66
2022/11/13 07:23:41;;;;;;;13.90;11.73;;;3.30;99.90;;;;;;4897473;29;20959;-66
2022/11/13 07:26:27;;;;;;;20.57;15.00;;;3.40;99.90;;;;;;4884009;29;20304;-67
2022/11/13 07:29:12;;;;;;;17.20;14.27;;;3.40;99.90;;;;;;4886508;29;20216;-66
2022/11/13 07:31:57;;;;;;;20.67;14.13;;;3.50;99.90;;;;;;4902678;29;20205;-67
2022/11/13 07:34:43;;;;;;;18.20;13.37;;;3.50;99.90;;;;;;4902466;29;20204;-66
2022/11/13 07:37:29;;;;;;;18.17;15.17;;;3.60;31.60;;;;;;4904275;29;20272;-67
2022/11/13 07:40:16;;;;;;;18.63;16.23;;;3.60;77.70;;;;;;4884521;29;20211;-66
2022/11/13 07:43:02;;;;;;;25.23;17.13;;;3.70;43.60;;;;;;4888251;29;20216;-67
2022/11/13 07:45:53;;;;;;;19.30;14.63;;;3.80;1.00;;;;;;4902964;29;20267;-66
2022/11/13 07:48:39;;;;;;;21.97;17.27;;;3.90;1.00;;;;;;4900348;29;20232;-65
2022/11/13 07:51:24;;;;;;;20.80;15.30;;;3.90;1.00;;;;;;4888538;29;20212;-66
2022/11/13 07:54:10;;;;;;;22.73;17.97;;;4.00;1.00;;;;;;4889967;29;20207;-67
2022/11/13 07:56:55;;;;;;;22.33;17.57;;;4.10;1.00;;;;;;4902168;29;20316;-66
2022/11/13 07:59:41;;;;;;;26.90;19.87;;;4.20;1.00;;;;;;4896977;29;20224;-65
2022/11/13 08:02:27;;;;;;;16.33;13.23;;;4.20;1.00;;;;;;4900535;29;20264;-65
2022/11/13 08:05:14;;;;;;;15.83;12.90;;;4.50;1.00;;;;;;4880988;29;20312;-64
2022/11/13 08:07:59;;;;;;;17.07;11.67;;;4.70;16.90;;;;;;4900195;29;20254;-66
2022/11/13 08:10:45;;;;;;;29.07;26.07;;;4.90;1.00;;;;;;4900761;29;20406;-66
2022/11/13 08:13:31;;;;;;;18.17;16.20;;;4.80;1.00;;;;;;4899562;29;20581;-66
2022/11/13 08:16:16;;;;;;;15.50;11.77;;;4.90;1.00;;;;;;4896693;29;21121;-66
2022/11/13 08:19:02;;;;;;;16.20;13.00;;;4.90;1.00;;;;;;4898717;29;20268;-67
2022/11/13 08:21:47;;;;;;;17.13;13.63;;;4.80;1.00;;;;;;4897323;29;20875;-66
2022/11/13 08:24:33;;;;;;;26.23;22.40;;;4.90;1.00;;;;;;4902489;29;20334;-66
2022/11/13 08:27:22;;;;;;;23.57;18.50;;;4.90;1.00;;;;;;4900403;29;20686;-67
2022/11/13 08:30:08;;;;;;;17.77;13.90;;;5.10;1.00;;;;;;4900826;29;20247;-67
2022/11/13 08:32:53;;;;;;;19.50;13.73;;;5.20;1.00;;;;;;4901561;29;20280;-67
2022/11/13 08:35:39;;;;;;;24.47;14.77;;;5.40;1.00;;;;;;4900654;29;20289;-67
2022/11/13 08:38:25;;;;;;;19.10;12.17;;;5.50;1.00;;;;;;4900365;29;20216;-67
2022/11/13 08:41:11;;;;;;;15.13;10.90;;;5.60;1.00;;;;;;4897946;29;20208;-66
2022/11/13 08:43:57;;;;;;;10.53;8.40;;;5.70;99.90;;;;;;4887673;29;20209;-67
2022/11/13 08:46:42;;;;;;;10.30;8.17;;;5.90;99.90;;;;;;4899716;29;20834;-66
2022/11/13 08:49:28;;;;;;;7.93;7.13;;;6.00;99.90;;;;;;4900273;29;20223;-66
2022/11/13 08:52:14;;;;;;;8.33;6.00;;;6.30;99.90;;;;;;4901249;29;20203;-66
2022/11/13 08:54:59;;;;;;;7.90;6.40;;;6.40;99.90;;;;;;4902269;29;20767;-66
2022/11/13 08:57:45;;;;;;;6.03;5.40;;;6.90;99.80;;;;;;4899678;29;20555;-67
2022/11/13 09:00:31;;;;;;;6.30;4.60;;;10.70;1.00;;;;;;4887797;29;20214;-67
2022/11/13 09:03:17;;;;;;;4.70;3.83;;;16.60;1.00;;;;;;4887658;29;21012;-67
2022/11/13 09:06:07;;;;;;;6.35;4.30;;;19.90;1.00;;;;;;4899050;29;20902;-67
2022/11/13 09:08:52;;;;;;;4.93;3.60;;;21.50;1.00;;;;;;4900229;29;20228;-68
2022/11/13 09:11:38;;;;;;;5.45;4.10;;;23.30;1.00;;;;;;4899769;29;20451;-67
2022/11/13 09:14:24;;;;;;;4.32;3.83;;;24.80;1.00;;;;;;4900689;29;20203;-66
2022/11/13 09:17:09;;;;;;;5.25;3.90;;;25.60;1.00;;;;;;4898106;29;20380;-66
2022/11/13 09:19:55;;;;;;;4.35;3.65;;;26.20;1.00;;;;;;4886547;29;20220;-66
2022/11/13 09:22:46;;;;;;;3.33;3.03;;;26.90;1.00;;;;;;4899308;29;20215;-66
2022/11/13 09:25:34;;;;;;;5.45;3.50;;;27.10;1.00;;;;;;4900346;29;20231;-66
2022/11/13 09:28:22;;;;;;;4.65;3.97;;;26.30;1.00;;;;;;4899656;29;20207;-67
2022/11/13 09:31:08;;;;;;;5.10;4.07;;;27.20;1.00;;;;;;4898744;29;20208;-67
2022/11/13 09:33:53;;;;;;;4.57;4.10;;;27.90;1.00;;;;;;4899333;29;20257;-67
2022/11/13 09:36:38;;;;;;;4.88;4.00;;;28.40;1.00;;;;;;4900160;29;20227;-67
2022/11/13 09:39:24;;;;;;;5.78;3.60;;;28.70;1.00;;;;;;4899619;29;20821;-67
2022/11/13 09:42:09;;;;;;;4.07;3.50;;;29.10;1.00;;;;;;4877826;29;20220;-67
2022/11/13 09:45:06;;;;;;;3.50;3.17;;;29.60;1.00;;;;;;4896688;29;20571;-66
2022/11/13 09:47:53;;;;;;;6.78;3.88;;;29.60;1.00;;;;;;4898976;29;20216;-66
2022/11/13 09:50:39;;;;;;;7.45;3.50;;;29.90;1.00;;;;;;4884220;29;20276;-64
2022/11/13 09:53:26;;;;;;;3.60;3.30;;;30.50;1.00;;;;;;4898771;29;20195;-63
2022/11/13 09:56:31;;;;;;;4.60;2.90;;;30.40;1.00;;;;;;4899532;29;20195;-64
2022/11/13 09:59:45;;;;;;;4.22;3.60;;;30.30;1.00;;;;;;4896879;29;20219;-64
2022/11/13 10:03:06;;;;;;;5.68;3.63;;;27.40;1.00;;;;;;4894657;29;20211;-64
2022/11/13 10:05:56;;;;;;;3.40;3.10;;;26.00;1.00;;;;;;4871377;29;20782;-64
2022/11/13 10:08:51;;;;;;;5.00;3.20;;;25.20;1.00;;;;;;4899739;29;20203;-65
2022/11/13 10:11:42;;;;;;;6.32;2.65;;;26.90;1.00;;;;;;4883486;29;20230;-63
2022/11/13 10:14:41;;;;;;;4.63;3.58;;;29.70;1.00;;;;;;4894243;29;20278;-65
2022/11/13 10:17:47;;;;;;;11.90;7.68;;;30.20;1.00;;;;;;4894519;29;20870;-68
2022/11/13 10:20:43;;;;;;;5.43;3.60;;;31.70;1.00;;;;;;4898933;29;20344;-68
2022/11/13 10:23:33;;;;;;;20.52;11.27;;;32.80;1.00;;;;;;4901325;29;20219;-67
2022/11/13 10:26:21;;;;;;;3.53;3.10;;;32.80;1.00;;;;;;4897683;29;20219;-67
2022/11/13 10:29:11;;;;;;;11.88;7.20;;;30.50;1.00;;;;;;4882307;29;20227;-67
2022/11/13 10:31:58;;;;;;;3.15;2.72;;;30.80;1.00;;;;;;4899386;29;20659;-67
2022/11/13 10:34:58;;;;;;;3.35;3.03;;;30.40;1.00;;;;;;4885941;29;20203;-67
2022/11/13 10:38:20;;;;;;;3.65;2.47;;;29.70;1.00;;;;;;4895922;29;20200;-67
2022/11/13 10:41:15;;;;;;;2.75;2.30;;;29.60;1.00;;;;;;4882683;29;20212;-67
2022/11/13 10:44:05;;;;;;;3.20;2.88;;;29.50;1.00;;;;;;4897466;29;20210;-68
2022/11/13 10:47:16;;;;;;;5.25;2.30;;;30.10;1.00;;;;;;4882238;29;20224;-68
2022/11/13 10:50:28;;;;;;;3.25;2.95;;;29.70;1.00;;;;;;4886783;29;20345;-68
2022/11/13 10:53:18;;;;;;;4.90;3.47;;;29.20;1.00;;;;;;4870883;29;20676;-67
2022/11/13 10:56:25;;;;;;;5.35;2.80;;;29.10;1.00;;;;;;4895888;29;20204;-68
2022/11/13 10:59:16;;;;;;;3.22;2.58;;;27.90;1.00;;;;;;4898209;29;20207;-67
2022/11/13 11:02:13;;;;;;;3.58;3.00;;;27.00;1.00;;;;;;4894119;29;20343;-67
2022/11/13 11:05:22;;;;;;;4.07;2.95;;;27.70;1.00;;;;;;4900783;29;20231;-68
2022/11/13 11:08:09;;;;;;;3.08;2.63;;;28.40;1.00;;;;;;4887801;29;20208;-68
2022/11/13 11:14:27;;;;;;;3.33;2.53;;;28.60;1.00;;;;;;4899667;29;20249;-69
2022/11/13 11:17:14;;;;;;;4.07;3.42;;;29.10;1.00;;;;;;4884492;29;20325;-67
2022/11/13 11:20:12;;;;;;;3.65;2.78;;;29.00;1.00;;;;;;4898801;29;20219;-68
2022/11/13 11:23:17;;;;;;;4.25;3.55;;;26.10;1.00;;;;;;4901587;29;20223;-67
2022/11/13 11:26:22;;;;;;;3.55;2.70;;;25.30;1.00;;;;;;4903823;29;20268;-67
2022/11/13 11:29:31;;;;;;;5.07;3.42;;;25.50;1.00;;;;;;4903772;29;20575;-67
2022/11/13 11:32:30;;;;;;;3.45;2.60;;;25.50;1.00;;;;;;4875573;29;20210;-67
2022/11/13 11:35:20;;;;;;;2.95;2.67;;;23.90;1.00;;;;;;4901082;29;20248;-67
2022/11/13 11:38:18;;;;;;;4.18;3.10;;;21.70;1.00;;;;;;4903144;29;20702;-67
2022/11/13 11:41:12;;;;;;;5.35;3.30;;;21.20;1.00;;;;;;4903570;29;20318;-67
2022/11/13 11:44:10;;;;;;;4.30;3.63;;;21.70;1.00;;;;;;4897957;29;20754;-67
2022/11/13 11:46:56;;;;;;;4.20;2.97;;;21.00;1.00;;;;;;4901689;29;20208;-67
2022/11/13 11:49:43;;;;;;;3.63;3.03;;;21.20;1.00;;;;;;4899574;29;20223;-67
2022/11/13 11:52:50;;;;;;;6.07;3.60;;;21.10;1.00;;;;;;4898416;29;20223;-67
2022/11/13 11:55:55;;;;;;;3.42;3.08;;;21.00;1.00;;;;;;4888061;29;21050;-68
2022/11/13 11:58:44;;;;;;;3.72;3.05;;;20.80;1.00;;;;;;4886962;29;20657;-67
2022/11/13 12:01:59;;;;;;;9.73;6.60;;;21.50;1.00;;;;;;4901718;29;20206;-67
2022/11/13 12:04:56;;;;;;;9.27;5.20;;;21.80;1.00;;;;;;4873162;29;20545;-68
2022/11/13 12:08:15;;;;;;;19.60;11.93;;;21.40;1.00;;;;;;4870906;29;20205;-68
2022/11/13 12:11:26;;;;;;;10.82;6.15;;;22.50;1.00;;;;;;4863482;29;20227;-68
2022/11/13 12:14:24;;;;;;;52.08;25.40;;;23.60;1.00;;;;;;4868101;29;20196;-68
2022/11/13 12:17:39;;;;;;;38.13;17.30;;;23.80;1.00;;;;;;4880380;29;20282;-68
2022/11/13 12:20:37;;;;;;;22.83;16.23;;;24.30;1.00;;;;;;4862616;29;20680;-68
2022/11/13 12:23:47;;;;;;;17.95;11.70;;;22.20;1.00;;;;;;4879612;29;20248;-68
2022/11/13 12:26:46;;;;;;;11.93;6.68;;;22.90;1.00;;;;;;4879263;29;20243;-68
2022/11/13 12:29:40;;;;;;;4.40;3.42;;;23.80;1.00;;;;;;4882650;29;20691;-67
2022/11/13 12:32:47;;;;;;;5.38;4.03;;;23.60;1.00;;;;;;4867715;29;20680;-67
2022/11/13 12:35:32;;;;;;;7.40;5.25;;;23.40;1.00;;;;;;4867334;29;20204;-67
2022/11/13 12:38:27;;;;;;;5.10;4.35;;;23.40;1.00;;;;;;4884172;29;20205;-67
2022/11/13 12:41:34;;;;;;;4.05;3.55;;;23.30;1.00;;;;;;4879734;29;20695;-66
2022/11/13 12:44:23;;;;;;;5.25;4.25;;;23.40;1.00;;;;;;4883797;29;20207;-68
2022/11/13 12:47:10;;;;;;;5.63;4.03;;;23.40;1.00;;;;;;4884757;29;20292;-68
2022/11/13 12:50:05;;;;;;;5.93;3.90;;;23.00;1.00;;;;;;4879405;29;20219;-68
2022/11/13 12:53:05;;;;;;;4.88;3.83;;;22.40;1.00;;;;;;4883070;29;20212;-67
2022/11/13 12:55:59;;;;;;;4.68;3.53;;;22.00;1.00;;;;;;4856585;29;20271;-68
2022/11/13 12:58:52;;;;;;;4.10;3.70;;;21.60;1.00;;;;;;4881659;29;20642;-67
2022/11/13 13:02:08;;;;;;;6.50;3.45;;;21.40;1.00;;;;;;4882940;29;20208;-68
2022/11/13 13:05:14;;;;;;;5.68;3.83;;;20.80;1.00;;;;;;4890934;29;22190;-68
2022/11/13 13:08:06;;;;;;;5.53;3.30;;;19.90;1.00;;;;;;4895957;29;20211;-68
2022/11/13 13:10:55;;;;;;;3.80;2.95;;;19.70;1.00;;;;;;4882790;29;20640;-67
2022/11/13 13:13:54;;;;;;;4.05;3.30;;;19.50;1.00;;;;;;4898225;29;20235;-67
2022/11/13 13:16:39;;;;;;;5.63;3.30;;;19.30;1.00;;;;;;4899894;29;20294;-68
2022/11/13 13:19:32;;;;;;;4.50;3.22;;;18.80;1.00;;;;;;4903274;29;20290;-68
2022/11/13 13:22:33;;;;;;;4.82;2.97;;;18.70;1.00;;;;;;4902004;29;20200;-68
2022/11/13 13:25:27;;;;;;;4.57;2.95;;;18.50;1.00;;;;;;4900930;29;20510;-67
2022/11/13 13:28:23;;;;;;;3.15;2.70;;;18.30;1.00;;;;;;4886433;29;20227;-67
2022/11/13 13:31:29;;;;;;;6.07;1.98;;;18.00;1.00;;;;;;4898065;29;20380;-67
2022/11/13 13:34:32;;;;;;;2.53;2.10;;;17.90;1.00;;;;;;4901911;29;20215;-67
2022/11/13 13:37:47;;;;;;;3.75;2.17;;;17.70;1.00;;;;;;4899346;29;20817;-67
2022/11/13 13:40:51;;;;;;;2.53;1.73;;;17.60;1.00;;;;;;4898533;29;20204;-67
2022/11/13 13:43:53;;;;;;;2.22;1.90;;;17.50;1.00;;;;;;4890100;29;20327;-67
2022/11/13 13:46:40;;;;;;;3.92;2.60;;;17.30;1.00;;;;;;4886591;29;20224;-68
2022/11/13 13:49:27;;;;;;;2.47;1.85;;;17.30;1.00;;;;;;4897390;29;20211;-69
2022/11/13 13:52:18;;;;;;;3.97;1.80;;;17.20;1.00;;;;;;4884824;29;20667;-67
2022/11/13 13:55:06;;;;;;;3.28;2.42;;;17.10;1.00;;;;;;4899482;29;20203;-69
2022/11/13 13:57:52;;;;;;;2.50;1.77;;;17.10;1.00;;;;;;4899481;29;20212;-68
2022/11/13 14:00:37;;;;;;;2.58;1.90;;;17.00;1.00;;;;;;4897913;29;20203;-67
2022/11/13 14:03:43;;;;;;;4.65;2.65;;;16.90;1.00;;;;;;4895407;29;20262;-67
2022/11/13 14:06:28;;;;;;;2.67;2.22;;;16.90;1.00;;;;;;4897804;29;20848;-67
2022/11/13 14:09:26;;;;;;;2.92;2.17;;;16.80;1.00;;;;;;4886021;29;20219;-68
2022/11/13 14:12:21;;;;;;;2.72;2.17;;;16.70;1.00;;;;;;4901030;29;20247;-67
2022/11/13 14:15:26;;;;;;;4.78;2.28;;;16.60;1.00;;;;;;4893655;29;20875;-67
2022/11/13 14:18:17;;;;;;;10.85;7.75;;;16.50;1.00;;;;;;4878280;29;20203;-67
2022/11/13 14:21:14;;;;;;;2.65;1.70;;;16.30;1.00;;;;;;4866252;29;21454;-66
2022/11/13 14:24:02;;;;;;;3.28;1.90;;;16.50;1.00;;;;;;4891904;29;20221;-67
2022/11/13 14:26:50;;;;;;;2.80;1.92;;;16.40;1.00;;;;;;4889224;29;20287;-66
2022/11/13 14:30:00;;;;;;;4.45;3.53;;;16.40;1.00;;;;;;4897337;29;20223;-66
2022/11/13 14:32:46;;;;;;;3.13;2.13;;;16.30;1.00;;;;;;4893889;29;20600;-67
2022/11/13 14:35:31;;;;;;;1.85;1.55;;;16.10;1.00;;;;;;4874090;29;20767;-67
2022/11/13 14:38:23;;;;;;;1.77;1.50;;;16.00;1.00;;;;;;4880603;29;20203;-66
2022/11/13 14:41:27;;;;;;;2.45;1.85;;;15.90;1.00;;;;;;4879106;29;20220;-67
2022/11/13 14:44:12;;;;;;;2.53;1.60;;;15.90;1.00;;;;;;4880162;29;20216;-67
2022/11/13 14:47:01;;;;;;;2.30;1.88;;;15.90;1.00;;;;;;4865937;29;20256;-67
2022/11/13 14:49:46;;;;;;;5.20;2.10;;;15.80;1.00;;;;;;4882819;29;20276;-67